createdAt,value
2018-07-12T00:02:01.694Z,101225.12
2018-07-12T00:04:28.800Z,101233.66
2018-07-12T00:06:55.952Z,101236.34
2018-07-12T00:09:23.068Z,101235.50
2018-07-12T00:11:50.176Z,101237.17
2018-07-12T00:14:17.309Z,101246.87
2018-07-12T00:16:44.449Z,101248.72
2018-07-12T00:19:11.600Z,101242.53
2018-07-12T00:21:38.724Z,101246.21
2018-07-12T00:24:05.844Z,101245.88
2018-07-12T00:26:33.008Z,101247.55
2018-07-12T00:29:00.106Z,101244.70
2018-07-12T00:31:27.229Z,101244.38
2018-07-12T00:33:54.353Z,101241.69
2018-07-12T00:36:22.485Z,101246.55
2018-07-12T00:38:49.612Z,101244.88
2018-07-12T00:41:16.731Z,101243.03
2018-07-12T00:43:43.844Z,101251.23
2018-07-12T00:46:10.976Z,101245.55
2018-07-12T00:48:38.092Z,101243.20
2018-07-12T00:51:05.214Z,101248.55
2018-07-12T00:53:32.324Z,101251.91
2018-07-12T00:55:59.470Z,101252.23
2018-07-12T00:58:26.584Z,101254.91
2018-07-12T01:00:53.705Z,101249.23
2018-07-12T01:03:20.812Z,101246.21
2018-07-12T01:05:47.941Z,101247.89
2018-07-12T01:08:15.072Z,101247.05
2018-07-12T01:10:42.193Z,101250.23
2018-07-12T01:13:09.313Z,101251.73
2018-07-12T01:15:36.424Z,101251.23
2018-07-12T01:18:03.536Z,101250.06
2018-07-12T01:20:30.694Z,101255.42
2018-07-12T01:22:57.820Z,101247.55
2018-07-12T01:25:24.940Z,101248.55
2018-07-12T01:27:52.061Z,101245.88
2018-07-12T01:30:19.177Z,101242.90
2018-07-12T01:32:46.305Z,101246.91
2018-07-12T01:35:13.476Z,101240.39
2018-07-12T01:37:40.594Z,101243.23
2018-07-12T01:40:07.746Z,101246.91
2018-07-12T01:42:34.925Z,101243.39
2018-07-12T01:45:02.033Z,101243.39
2018-07-12T01:47:29.148Z,101246.23
2018-07-12T01:49:56.266Z,101239.55
2018-07-12T01:52:23.392Z,101236.87
2018-07-12T01:54:50.505Z,101229.84
2018-07-12T01:57:17.620Z,101231.52
2018-07-12T01:59:44.744Z,101230.67
2018-07-12T02:02:11.857Z,101232.85
2018-07-12T02:04:38.976Z,101231.34
2018-07-12T02:07:06.104Z,101233.19
2018-07-12T02:09:33.220Z,101236.53
2018-07-12T02:12:00.353Z,101232.68
2018-07-12T02:14:27.486Z,101230.17
2018-07-12T02:16:54.620Z,101227.19
2018-07-12T02:19:21.733Z,101225.84
2018-07-12T02:21:48.848Z,101222.50
2018-07-12T02:24:15.964Z,101221.49
2018-07-12T02:26:43.089Z,101221.83
2018-07-12T02:29:10.214Z,101218.84
2018-07-12T02:31:37.332Z,101225.66
2018-07-12T02:34:04.457Z,101231.67
2018-07-12T02:36:31.586Z,101230.16
2018-07-12T02:38:58.704Z,101225.81
2018-07-12T02:41:25.817Z,101225.98
2018-07-12T02:43:52.940Z,101228.85
2018-07-12T02:46:20.053Z,101225.84
2018-07-12T02:48:47.243Z,101227.34
2018-07-12T02:51:14.357Z,101231.86
2018-07-12T02:53:41.494Z,101231.52
2018-07-12T02:56:08.604Z,101224.83
2018-07-12T02:58:35.720Z,101229.51
2018-07-12T03:01:02.864Z,101225.32
2018-07-12T03:03:30.008Z,101229.66
2018-07-12T03:05:57.174Z,101233.84
2018-07-12T03:08:24.285Z,101235.88
2018-07-12T03:10:51.414Z,101236.20
2018-07-12T03:13:18.528Z,101234.69
2018-07-12T03:15:45.648Z,101235.84
2018-07-12T03:18:12.904Z,101239.34
2018-07-12T03:20:40.026Z,101236.50
2018-07-12T03:23:07.137Z,101242.20
2018-07-12T03:25:34.281Z,101244.20
2018-07-12T03:28:01.397Z,101243.19
2018-07-12T03:30:28.507Z,101244.34
2018-07-12T03:32:55.640Z,101238.82
2018-07-12T03:35:22.753Z,101241.16
2018-07-12T03:37:49.872Z,101247.50
2018-07-12T03:40:17.042Z,101248.69
2018-07-12T03:42:44.129Z,101247.18
2018-07-12T03:45:11.245Z,101246.50
2018-07-12T03:47:38.392Z,101247.84
2018-07-12T03:50:05.524Z,101247.50
2018-07-12T03:52:32.717Z,101253.34
2018-07-12T03:54:59.840Z,101252.16
2018-07-12T03:57:26.957Z,101253.50
2018-07-12T03:59:54.080Z,101255.67
2018-07-12T04:02:21.193Z,101249.00
2018-07-12T04:04:48.321Z,101251.67
2018-07-12T04:07:15.449Z,101256.17
2018-07-12T04:09:42.582Z,101257.85
2018-07-12T04:12:09.701Z,101258.19
2018-07-12T04:14:36.853Z,101250.17
2018-07-12T04:17:03.981Z,101256.36
2018-07-12T04:19:31.096Z,101254.86
2018-07-12T04:21:58.219Z,101254.86
2018-07-12T04:24:25.358Z,101254.36
2018-07-12T04:26:52.473Z,101253.86
2018-07-12T04:29:19.589Z,101262.22
2018-07-12T04:31:46.720Z,101266.91
2018-07-12T04:34:13.833Z,101262.73
2018-07-12T04:36:40.949Z,101263.05
2018-07-12T04:39:08.084Z,101267.73
2018-07-12T04:41:35.196Z,101269.09
2018-07-12T04:44:02.334Z,101274.28
2018-07-12T04:46:29.460Z,101273.95
2018-07-12T04:48:56.601Z,101279.29
2018-07-12T04:51:23.697Z,101272.44
2018-07-12T04:53:50.821Z,101276.12
2018-07-12T04:56:17.953Z,101284.33
2018-07-12T04:58:45.059Z,101285.67
2018-07-12T05:01:12.198Z,101287.19
2018-07-12T05:03:39.313Z,101289.53
2018-07-12T05:06:07.018Z,101290.02
2018-07-12T05:08:34.201Z,101284.17
2018-07-12T05:11:01.317Z,101289.02
2018-07-12T05:13:29.301Z,101285.00
2018-07-12T05:15:56.457Z,101286.34
2018-07-12T05:18:23.549Z,101289.36
2018-07-12T05:20:50.664Z,101286.68
2018-07-12T05:23:17.788Z,101290.37
2018-07-12T05:25:44.908Z,101281.18
2018-07-12T05:28:12.025Z,101289.05
2018-07-12T05:30:39.165Z,101289.38
2018-07-12T05:33:06.280Z,101293.23
2018-07-12T05:35:34.552Z,101295.75
2018-07-12T05:38:02.757Z,101296.05
2018-07-12T05:40:30.981Z,101297.56
2018-07-12T05:42:59.266Z,101297.91
2018-07-12T05:45:27.645Z,101306.95
2018-07-12T05:47:55.941Z,101306.78
2018-07-12T05:50:24.774Z,101306.16
2018-07-12T05:52:53.180Z,101310.17
2018-07-12T05:55:21.498Z,101316.01
2018-07-12T05:57:49.701Z,101315.52
2018-07-12T06:00:18.189Z,101317.54
2018-07-12T06:02:46.522Z,101322.20
2018-07-12T06:05:14.697Z,101318.20
2018-07-12T06:07:42.912Z,101316.53
2018-07-12T06:10:11.130Z,101318.54
2018-07-12T06:12:39.337Z,101313.66
2018-07-12T06:15:07.576Z,101316.84
2018-07-12T06:17:35.796Z,101316.17
2018-07-12T06:20:04.077Z,101314.84
2018-07-12T06:22:32.289Z,101316.68
2018-07-12T06:25:00.504Z,101320.70
2018-07-12T06:27:28.781Z,101324.87
2018-07-12T06:29:57.039Z,101320.19
2018-07-12T06:32:25.236Z,101326.21
2018-07-12T06:34:53.448Z,101327.89
2018-07-12T06:37:21.709Z,101328.22
2018-07-12T06:39:49.933Z,101331.58
2018-07-12T06:42:18.176Z,101336.27
2018-07-12T06:44:46.420Z,101342.97
2018-07-12T06:47:14.637Z,101351.00
2018-07-12T06:49:42.879Z,101352.16
2018-07-12T06:52:11.096Z,101350.98
2018-07-12T06:54:39.332Z,101355.00
2018-07-12T06:57:07.669Z,101358.35
2018-07-12T06:59:35.881Z,101358.02
2018-07-12T07:02:04.096Z,101359.02
2018-07-12T07:04:32.316Z,101364.05
2018-07-12T07:07:00.541Z,101362.71
2018-07-12T07:09:28.753Z,101361.01
2018-07-12T07:11:56.988Z,101363.36
2018-07-12T07:14:25.205Z,101364.88
2018-07-12T07:16:53.466Z,101364.88
2018-07-12T07:19:21.742Z,101358.64
2018-07-12T07:21:50.007Z,101365.51
2018-07-12T07:24:18.254Z,101366.17
2018-07-12T07:26:46.478Z,101367.02
2018-07-12T07:29:14.736Z,101367.02
2018-07-12T07:31:42.956Z,101365.67
2018-07-12T07:34:11.212Z,101369.86
2018-07-12T07:36:39.452Z,101365.84
2018-07-12T07:39:08.608Z,101371.88
2018-07-12T07:41:36.896Z,101375.39
2018-07-12T07:44:05.209Z,101378.03
2018-07-12T07:46:33.477Z,101384.40
2018-07-12T07:49:01.707Z,101384.40
2018-07-12T07:51:29.952Z,101386.41
2018-07-12T07:53:58.209Z,101392.61
2018-07-12T07:56:26.449Z,101394.11
2018-07-12T07:58:54.697Z,101395.62
2018-07-12T08:01:22.916Z,101395.41
2018-07-12T08:03:51.136Z,101393.40
2018-07-12T08:06:19.409Z,101390.05
2018-07-12T08:08:47.661Z,101398.92
2018-07-12T08:11:15.949Z,101393.39
2018-07-12T08:13:44.161Z,101394.06
2018-07-12T08:16:12.484Z,101399.59
2018-07-12T08:18:40.637Z,101400.10
2018-07-12T08:21:12.205Z,101402.11
2018-07-12T08:23:40.485Z,101393.06
2018-07-12T08:26:08.975Z,101392.72
2018-07-12T08:28:37.178Z,101394.91
2018-07-12T08:31:05.487Z,101389.71
2018-07-12T08:33:33.698Z,101394.41
2018-07-12T08:36:01.947Z,101393.41
2018-07-12T08:38:30.238Z,101393.07
2018-07-12T08:40:58.497Z,101392.23
2018-07-12T08:43:26.744Z,101389.03
2018-07-12T08:45:55.005Z,101396.57
2018-07-12T08:48:23.254Z,101396.03
2018-07-12T08:50:51.488Z,101393.68
2018-07-12T08:53:19.718Z,101400.38
2018-07-12T08:55:47.968Z,101394.35
2018-07-12T08:58:16.225Z,101399.22
2018-07-12T09:00:44.469Z,101399.55
2018-07-12T09:03:12.705Z,101397.70
2018-07-12T09:05:40.949Z,101400.71
2018-07-12T09:08:09.192Z,101405.69
2018-07-12T09:10:37.448Z,101406.69
2018-07-12T09:13:05.775Z,101402.80
2018-07-12T09:15:34.010Z,101406.65
2018-07-12T09:18:02.273Z,101404.62
2018-07-12T09:20:30.489Z,101406.25
2018-07-12T09:22:58.761Z,101400.19
2018-07-12T09:25:29.383Z,101408.88
2018-07-12T09:27:57.882Z,101409.52
2018-07-12T09:30:26.120Z,101409.16
2018-07-12T09:32:54.336Z,101401.09
2018-07-12T09:35:22.589Z,101409.80
2018-07-12T09:37:50.853Z,101411.41
2018-07-12T09:40:19.084Z,101411.05
2018-07-12T09:42:47.305Z,101410.48
2018-07-12T09:45:15.604Z,101414.34
2018-07-12T09:47:43.857Z,101404.25
2018-07-12T09:50:12.225Z,101411.80
2018-07-12T09:52:40.497Z,101415.00
2018-07-12T09:55:08.750Z,101410.69
2018-07-12T09:57:48.097Z,101408.38
2018-07-12T10:00:16.528Z,101414.09
2018-07-12T10:02:49.976Z,101412.25
2018-07-12T10:06:25.377Z,101417.27
2018-07-12T10:09:00.745Z,101418.24
2018-07-12T10:11:34.331Z,101417.70
2018-07-12T10:15:05.833Z,101417.69
2018-07-12T10:17:39.554Z,101416.16
2018-07-12T10:20:07.909Z,101416.66
2018-07-12T10:22:36.168Z,101410.75
2018-07-12T10:25:04.392Z,101409.86
2018-07-12T10:27:32.637Z,101413.33
2018-07-12T10:30:00.873Z,101411.57
2018-07-12T10:32:29.114Z,101411.70
2018-07-12T10:34:57.370Z,101416.38
2018-07-12T10:37:25.716Z,101416.83
2018-07-12T10:39:54.070Z,101407.87
2018-07-12T10:42:22.485Z,101408.75
2018-07-12T10:44:50.776Z,101401.86
2018-07-12T10:47:19.126Z,101402.22
2018-07-12T10:49:47.450Z,101403.52
2018-07-12T10:52:15.769Z,101405.20
2018-07-12T10:54:44.114Z,101403.34
2018-07-12T10:57:12.418Z,101405.29
2018-07-12T10:59:40.649Z,101407.91
2018-07-12T11:02:09.080Z,101404.48
2018-07-12T11:04:37.393Z,101405.00
2018-07-12T11:07:05.748Z,101405.08
2018-07-12T11:09:34.044Z,101403.34
2018-07-12T11:12:02.390Z,101401.34
2018-07-12T11:14:30.757Z,101401.25
2018-07-12T11:16:59.049Z,101406.06
2018-07-12T11:19:27.303Z,101400.40
2018-07-12T11:21:55.603Z,101396.94
2018-07-12T11:24:23.901Z,101394.81
2018-07-12T11:26:52.142Z,101397.62
2018-07-12T11:29:30.237Z,101392.87
2018-07-12T11:31:58.468Z,101393.77
2018-07-12T11:34:26.740Z,101397.05
2018-07-12T11:36:54.994Z,101390.15
2018-07-12T11:39:23.290Z,101388.95
2018-07-12T11:41:51.664Z,101392.91
2018-07-12T11:44:20.030Z,101390.25
2018-07-12T11:46:48.310Z,101390.31
2018-07-12T11:49:16.585Z,101388.60
2018-07-12T11:51:44.924Z,101382.79
2018-07-12T11:54:13.236Z,101381.32
2018-07-12T11:56:41.477Z,101381.96
2018-07-12T11:59:09.710Z,101382.65
2018-07-12T12:01:38.044Z,101382.08
2018-07-12T12:04:06.637Z,101381.70
2018-07-12T12:06:34.914Z,101381.14
2018-07-12T12:09:03.445Z,101377.80
2018-07-12T12:11:31.838Z,101378.61
2018-07-12T12:14:00.173Z,101377.73
2018-07-12T12:16:28.408Z,101378.56
2018-07-12T12:18:56.696Z,101369.88
2018-07-12T12:21:25.030Z,101367.88
2018-07-12T12:23:53.297Z,101370.50
2018-07-12T12:26:21.658Z,101359.55
2018-07-12T12:28:49.941Z,101357.98
2018-07-12T12:31:18.174Z,101358.71
2018-07-12T12:33:46.393Z,101356.01
2018-07-12T12:36:14.632Z,101359.88
2018-07-12T12:38:42.884Z,101362.37
2018-07-12T12:41:11.093Z,101357.08
2018-07-12T12:43:39.345Z,101357.59
2018-07-12T12:46:07.592Z,101356.87
2018-07-12T12:48:35.817Z,101351.77
2018-07-12T12:51:04.355Z,101345.34
2018-07-12T12:53:32.700Z,101344.09
2018-07-12T12:56:00.988Z,101344.25
2018-07-12T12:58:29.261Z,101338.33
2018-07-12T13:00:57.519Z,101344.16
2018-07-12T13:03:25.776Z,101339.26
2018-07-12T13:05:54.030Z,101336.55
2018-07-12T13:08:22.269Z,101336.20
2018-07-12T13:10:50.522Z,101335.63
2018-07-12T13:13:18.716Z,101335.00
2018-07-12T13:15:46.942Z,101330.18
2018-07-12T13:18:15.192Z,101335.03
2018-07-12T13:20:43.481Z,101340.31
2018-07-12T13:23:11.705Z,101341.75
2018-07-12T13:25:40.408Z,101320.56
2018-07-12T13:28:08.615Z,101331.22
2018-07-12T13:30:36.773Z,101333.10
2018-07-12T13:33:05.070Z,101330.55
2018-07-12T13:35:33.324Z,101340.12
2018-07-12T13:38:01.549Z,101323.69
2018-07-12T13:40:29.917Z,101329.84
2018-07-12T13:42:58.201Z,101318.37
2018-07-12T13:45:26.429Z,101321.19
2018-07-12T13:47:54.649Z,101328.36
2018-07-12T13:50:23.477Z,101324.72
2018-07-12T13:52:52.308Z,101323.30
2018-07-12T13:55:20.533Z,101324.02
2018-07-12T13:57:48.787Z,101304.28
2018-07-12T14:00:17.014Z,101318.70
2018-07-12T14:02:45.228Z,101314.77
2018-07-12T14:05:13.533Z,101309.96
2018-07-12T14:07:41.788Z,101314.24
2018-07-12T14:10:10.030Z,101309.88
2018-07-12T14:12:38.261Z,101310.71
2018-07-12T14:15:06.701Z,101309.55
2018-07-12T14:17:34.924Z,101297.29
2018-07-12T14:20:03.165Z,101300.28
2018-07-12T14:22:31.409Z,101301.03
2018-07-12T14:24:59.673Z,101293.90
2018-07-12T14:27:27.902Z,101294.47
2018-07-12T14:29:56.105Z,101294.05
2018-07-12T14:32:24.308Z,101285.17
2018-07-12T14:34:52.562Z,101297.48
2018-07-12T14:37:20.796Z,101277.39
2018-07-12T14:39:49.145Z,101279.36
2018-07-12T14:42:17.337Z,101278.30
2018-07-12T14:44:45.566Z,101277.08
2018-07-12T14:47:13.785Z,101268.13
2018-07-12T14:49:42.014Z,101273.77
2018-07-12T14:52:10.220Z,101270.38
2018-07-12T14:54:38.514Z,101272.19
2018-07-12T14:57:06.797Z,101258.97
2018-07-12T14:59:35.029Z,101266.52
2018-07-12T15:02:03.364Z,101263.39
2018-07-12T15:04:31.617Z,101258.57
2018-07-12T15:06:59.841Z,101263.86
2018-07-12T15:09:28.186Z,101270.36
2018-07-12T15:11:56.357Z,101264.39
2018-07-12T15:14:24.677Z,101257.30
2018-07-12T15:16:52.984Z,101259.03
2018-07-12T15:19:21.218Z,101262.92
2018-07-12T15:21:49.340Z,101256.80
2018-07-12T15:24:17.580Z,101258.02
2018-07-12T15:26:45.833Z,101259.45
2018-07-12T15:29:14.142Z,101256.24
2018-07-12T15:31:42.509Z,101252.16
2018-07-12T15:34:10.677Z,101248.36
2018-07-12T15:36:38.889Z,101239.17
2018-07-12T15:39:07.713Z,101243.47
2018-07-12T15:41:35.965Z,101246.25
2018-07-12T15:44:04.276Z,101243.17
2018-07-12T15:46:32.517Z,101246.19
2018-07-12T15:49:00.869Z,101243.48
2018-07-12T15:51:29.128Z,101246.87
2018-07-12T15:53:57.430Z,101240.95
2018-07-12T15:56:25.717Z,101234.98
2018-07-12T15:58:53.937Z,101245.98
2018-07-12T16:01:22.160Z,101244.45
2018-07-12T16:03:50.398Z,101239.20
2018-07-12T16:06:18.708Z,101237.13
2018-07-12T16:08:46.924Z,101233.08
2018-07-12T16:11:15.133Z,101234.64
2018-07-12T16:13:43.345Z,101233.19
2018-07-12T16:16:11.578Z,101233.17
2018-07-12T16:18:39.808Z,101235.27
2018-07-12T16:21:08.083Z,101236.25
2018-07-12T16:23:36.285Z,101234.94
2018-07-12T16:26:04.488Z,101232.92
2018-07-12T16:28:32.804Z,101233.09
2018-07-12T16:31:01.189Z,101233.71
2018-07-12T16:33:29.437Z,101235.20
2018-07-12T16:35:57.664Z,101237.09
2018-07-12T16:38:25.941Z,101232.63
2018-07-12T16:40:54.152Z,101228.98
2018-07-12T16:43:22.390Z,101225.34
2018-07-12T16:45:50.673Z,101229.16
2018-07-12T16:48:18.900Z,101233.63
2018-07-12T16:50:47.137Z,101227.41
2018-07-12T16:53:15.369Z,101226.32
2018-07-12T16:55:43.649Z,101222.43
2018-07-12T16:58:11.861Z,101221.81
2018-07-12T17:00:40.077Z,101219.70
2018-07-12T17:03:08.293Z,101222.50
2018-07-12T17:05:37.028Z,101225.55
2018-07-12T17:08:05.292Z,101226.91
2018-07-12T17:10:33.540Z,101230.92
2018-07-12T17:13:01.771Z,101231.21
2018-07-12T17:15:29.976Z,101234.45
2018-07-12T17:17:58.211Z,101235.81
2018-07-12T17:20:26.524Z,101236.02
2018-07-12T17:22:54.945Z,101235.78
2018-07-12T17:25:23.221Z,101236.95
2018-07-12T17:27:51.462Z,101228.72
2018-07-12T17:30:19.692Z,101234.86
2018-07-12T17:32:47.918Z,101242.95
2018-07-12T17:35:16.308Z,101239.79
2018-07-12T17:37:44.553Z,101233.55
2018-07-12T17:40:12.816Z,101233.19
2018-07-12T17:42:41.048Z,101238.93
2018-07-12T17:45:09.268Z,101239.36
2018-07-12T17:47:37.589Z,101232.97
2018-07-12T17:50:05.777Z,101232.34
2018-07-12T17:52:34.013Z,101238.16
2018-07-12T17:55:02.232Z,101238.91
2018-07-12T17:57:30.477Z,101237.34
2018-07-12T17:59:58.680Z,101244.12
2018-07-12T18:02:26.925Z,101243.00
2018-07-12T18:04:55.248Z,101244.30
2018-07-12T18:07:23.458Z,101248.38
2018-07-12T18:09:51.669Z,101247.63
2018-07-12T18:12:19.894Z,101247.30
2018-07-12T18:14:48.128Z,101250.53
2018-07-12T18:17:16.341Z,101257.80
2018-07-12T18:19:44.601Z,101254.12
2018-07-12T18:22:12.831Z,101257.25
2018-07-12T18:24:41.037Z,101251.41
2018-07-12T18:27:09.281Z,101260.00
2018-07-12T18:29:37.476Z,101259.13
2018-07-12T18:32:05.994Z,101241.30
2018-07-12T18:34:34.192Z,101256.28
2018-07-12T18:37:02.440Z,101261.76
2018-07-12T18:39:30.684Z,101252.41
2018-07-12T18:41:58.905Z,101264.22
2018-07-12T18:44:27.144Z,101268.52
2018-07-12T18:46:55.666Z,101265.13
2018-07-12T18:49:23.870Z,101281.06
2018-07-12T18:51:52.085Z,101292.72
2018-07-12T18:54:20.343Z,101291.72
2018-07-12T18:56:48.566Z,101288.81
2018-07-12T18:59:16.777Z,101293.59
2018-07-12T19:01:45.005Z,101291.94
2018-07-12T19:04:13.252Z,101297.89
2018-07-12T19:06:41.460Z,101299.45
2018-07-12T19:09:10.557Z,101303.53
2018-07-12T19:11:38.801Z,101307.05
2018-07-12T19:14:07.040Z,101311.94
2018-07-12T19:16:35.266Z,101311.75
2018-07-12T19:19:03.608Z,101310.17
2018-07-12T19:21:31.833Z,101314.02
2018-07-12T19:24:00.074Z,101317.56
2018-07-12T19:26:28.344Z,101319.69
2018-07-12T19:28:56.553Z,101319.78
2018-07-12T19:31:24.809Z,101319.59
2018-07-12T19:33:53.049Z,101319.16
2018-07-12T19:36:21.292Z,101318.41
2018-07-12T19:38:49.511Z,101328.51
2018-07-12T19:41:17.745Z,101331.81
2018-07-12T19:43:45.996Z,101333.77
2018-07-12T19:46:14.213Z,101336.35
2018-07-12T19:48:48.856Z,101335.95
2018-07-12T19:51:17.059Z,101333.33
2018-07-12T19:53:45.276Z,101346.41
2018-07-12T19:56:13.495Z,101347.12
2018-07-12T19:58:41.764Z,101347.64
2018-07-12T20:01:10.020Z,101351.05
2018-07-12T20:03:38.345Z,101358.55
2018-07-12T20:06:06.773Z,101358.11
2018-07-12T20:08:35.101Z,101358.11
2018-07-12T20:11:03.336Z,101358.70
2018-07-12T20:13:31.564Z,101361.80
2018-07-12T20:15:59.792Z,101365.70
2018-07-12T20:18:28.022Z,101374.22
2018-07-12T20:20:56.275Z,101372.75
2018-07-12T20:23:24.500Z,101376.36
2018-07-12T20:25:52.909Z,101382.79
2018-07-12T20:28:21.154Z,101386.20
2018-07-12T20:30:49.901Z,101386.08
2018-07-12T20:33:18.108Z,101385.16
2018-07-12T20:35:46.395Z,101388.25
2018-07-12T20:38:14.688Z,101393.00
2018-07-12T20:40:42.925Z,101388.91
2018-07-12T20:43:16.149Z,101394.30
2018-07-12T20:45:44.364Z,101390.67
2018-07-12T20:48:12.635Z,101399.16
2018-07-12T20:50:40.852Z,101403.78
2018-07-12T20:53:09.065Z,101400.13
2018-07-12T20:55:37.340Z,101398.65
2018-07-12T20:58:05.632Z,101409.86
2018-07-12T21:00:33.849Z,101401.32
2018-07-12T21:03:02.097Z,101407.61
2018-07-12T21:05:30.353Z,101407.03
2018-07-12T21:07:58.572Z,101405.78
2018-07-12T21:10:26.820Z,101408.00
2018-07-12T21:12:55.049Z,101411.97
2018-07-12T21:15:23.266Z,101410.84
2018-07-12T21:17:51.577Z,101410.07
2018-07-12T21:20:19.869Z,101415.84
2018-07-12T21:22:48.124Z,101415.07
2018-07-12T21:25:16.341Z,101410.28
2018-07-12T21:27:44.630Z,101414.38
2018-07-12T21:30:12.861Z,101416.44
2018-07-12T21:32:41.130Z,101418.48
2018-07-12T21:35:09.704Z,101419.70
2018-07-12T21:37:38.006Z,101418.44
2018-07-12T21:40:06.274Z,101425.73
2018-07-12T21:42:34.485Z,101425.79
2018-07-12T21:45:02.782Z,101432.39
2018-07-12T21:47:31.025Z,101429.64
2018-07-12T21:49:59.274Z,101432.06
2018-07-12T21:52:27.480Z,101434.63
2018-07-12T21:54:55.692Z,101437.69
2018-07-12T21:57:23.912Z,101432.20
2018-07-12T21:59:52.184Z,101428.68
2018-07-12T22:02:20.416Z,101434.30
2018-07-12T22:04:48.635Z,101433.22
2018-07-12T22:08:22.281Z,101428.39
2018-07-12T22:10:52.521Z,101428.11
2018-07-12T22:13:21.429Z,101430.66
2018-07-12T22:15:49.685Z,101436.95
2018-07-12T22:18:17.924Z,101439.51
2018-07-12T22:20:46.142Z,101430.82
2018-07-12T22:23:14.356Z,101433.27
2018-07-12T22:25:42.576Z,101431.13
2018-07-12T22:28:10.815Z,101434.87
2018-07-12T22:30:39.160Z,101434.22
2018-07-12T22:33:07.323Z,101429.53
2018-07-12T22:35:35.557Z,101433.13
2018-07-12T22:38:04.336Z,101427.59
2018-07-12T22:40:32.833Z,101439.20
2018-07-12T22:43:01.040Z,101434.00
2018-07-12T22:45:29.256Z,101438.72
2018-07-12T22:47:57.728Z,101438.40
2018-07-12T22:50:26.293Z,101448.50
2018-07-12T22:52:54.567Z,101440.29
2018-07-12T22:55:22.809Z,101437.45
2018-07-12T22:57:51.061Z,101441.84
2018-07-12T23:00:19.293Z,101438.69
2018-07-12T23:02:47.548Z,101442.90
2018-07-12T23:05:15.767Z,101439.41
2018-07-12T23:07:44.075Z,101446.02
2018-07-12T23:10:12.290Z,101450.41
2018-07-12T23:12:40.493Z,101439.50
2018-07-12T23:15:08.748Z,101442.05
2018-07-12T23:17:36.966Z,101443.23
2018-07-12T23:20:05.401Z,101438.76
2018-07-12T23:22:33.620Z,101447.19
2018-07-12T23:25:01.849Z,101451.91
2018-07-12T23:27:30.059Z,101446.70
2018-07-12T23:29:58.276Z,101442.52
2018-07-12T23:32:26.503Z,101447.24
2018-07-12T23:34:54.706Z,101445.42
2018-07-12T23:37:22.925Z,101448.64
2018-07-12T23:39:51.181Z,101445.48
2018-07-12T23:42:19.395Z,101451.03
2018-07-12T23:44:47.605Z,101456.59
2018-07-12T23:47:15.808Z,101449.20
2018-07-12T23:49:44.021Z,101460.80
2018-07-12T23:52:12.290Z,101465.19
2018-07-12T23:54:40.505Z,101459.66
2018-07-12T23:57:08.711Z,101466.25
2018-07-12T23:59:36.914Z,101467.27
